Normandie — FNNO — position and weather

sailwx.info

Track history (hours):
 
Tides and Currents Weather Stations Pressure Air Temp Water Temp Dewpoint Dewpoint Depression Visibility Wind Speed Wind Dir Waves Ship Positions

Normandie

Operator: Brittany Ferries

Last reported at 2017-Jul-21 00:15 UTC. Time now 2017-Jul-21 02:29 UTC.
Position N 50°36' W 000°58'.

Length 161 m; beam 27 m.

Type: Passenger vessel. MMSI: 227273000.

Date/timePositionNaut miles runAvg speedWind from/ knotsBaromVisibWave heightAir tempDewpointWater temp
2017-Jul-21 00:15N 50°36' W 000°58'417.5
2017-Jul-21 00:00N 50°40' W 000°59'815.2
2017-Jul-20 23:31N 50°46' W 001°06'2 4.9
2017-Jul-20 23:01N 50°49' W 001°06'0 0.0
2017-Jul-20 22:30N 50°49' W 001°06'0 0.0
2017-Jul-20 22:00N 50°49' W 001°06'0 0.0
2017-Jul-20 21:30N 50°49' W 001°06'0 0.2
2017-Jul-20 21:01N 50°49' W 001°06'5 9.6
2017-Jul-20 20:31N 50°44' W 001°04'1019.2
2017-Jul-20 20:01N 50°36' W 000°57'6918.9
2017-Jul-20 16:20N 49°30' W 000°20'618.5
2017-Jul-20 16:00N 49°25' W 000°17'714.6
2017-Jul-20 15:30N 49°17' W 000°15'0 0.0
2017-Jul-20 15:00N 49°17' W 000°15'0 0.0
2017-Jul-20 14:00N 49°17' W 000°15'0 0.0
2017-Jul-20 13:30N 49°17' W 000°15'0 0.0
2017-Jul-20 13:00N 49°17' W 000°15'3 6.0
2017-Jul-20 12:30N 49°20' W 000°14'1018.5
2017-Jul-20 11:56N 49°30' W 000°19'6319.1
2017-Jul-20 08:38N 50°29' W 000°55'319.6
2017-Jul-20 08:27N 50°32' W 000°56'919.3
2017-Jul-20 08:00N 50°41' W 000°60'816.6
2017-Jul-20 07:31N 50°48' W 001°07'1 2.3
2017-Jul-20 07:01N 50°49' W 001°06'0 0.0
2017-Jul-20 06:30N 50°49' W 001°06'0 0.0
2017-Jul-20 06:01N 50°49' W 001°06'0 0.1
2017-Jul-20 05:31N 50°49' W 001°06'4 8.1
2017-Jul-20 05:00N 50°45' W 001°05'815.8
2017-Jul-20 04:30N 50°38' W 000°59'611.3
2017-Jul-20 04:00N 50°32' W 000°55'510.9
2017-Jul-20 03:30N 50°27' W 000°52'3111.1
2017-Jul-20 00:44N 49°59' W 000°36'2811.6
2017-Jul-19 22:18N 49°32' W 000°23'412.0
2017-Jul-19 22:00N 49°29' W 000°20'612.0
2017-Jul-19 21:30N 49°23' W 000°16'611.8
2017-Jul-19 21:00N 49°17' W 000°15'0 0.2
2017-Jul-19 20:30N 49°17' W 000°15'0 0.0
2017-Jul-19 20:00N 49°17' W 000°15'0 0.0
2017-Jul-19 19:30N 49°17' W 000°15'0 0.0
2017-Jul-19 19:00N 49°17' W 000°15'0 0.0
2017-Jul-19 18:31N 49°17' W 000°15'0 0.0
2017-Jul-19 18:00N 49°17' W 000°15'0 0.0
2017-Jul-19 17:30N 49°17' W 000°15'0 0.0
2017-Jul-19 17:00N 49°17' W 000°15'0 0.0
2017-Jul-19 16:30N 49°17' W 000°15'0 0.0
2017-Jul-19 16:01N 49°17' W 000°15'0 0.0
2017-Jul-19 15:31N 49°17' W 000°15'0 0.0
2017-Jul-19 15:01N 49°17' W 000°15'0 0.0
2017-Jul-19 14:31N 49°17' W 000°15'0 0.0
2017-Jul-19 14:01N 49°17' W 000°15'0 0.0
2017-Jul-19 13:30N 49°17' W 000°15'0 0.0
2017-Jul-19 13:01N 49°17' W 000°15'5 9.7
2017-Jul-19 12:30N 49°22' W 000°14'1018.8
2017-Jul-19 11:59N 49°32' W 000°18'6119.0
2017-Jul-19 08:47N 50°28' W 000°55'819.1
2017-Jul-19 08:23N 50°35' W 000°59'718.2
2017-Jul-19 08:00N 50°42' W 000°60'815.1
2017-Jul-19 07:30N 50°48' W 001°07'1 2.1
2017-Jul-19 07:00N 50°49' W 001°06'0 0.0
2017-Jul-19 06:30N 50°49' W 001°06'0 0.0
2017-Jul-19 06:00N 50°49' W 001°06'0 0.2
2017-Jul-19 05:31N 50°49' W 001°06'5 9.3
2017-Jul-19 05:00N 50°44' W 001°04'816.3
2017-Jul-19 04:31N 50°37' W 000°57'815.0
2017-Jul-19 04:00N 50°30' W 000°54'815.1
2017-Jul-19 03:27N 50°22' W 000°49'1611.6
2017-Jul-19 02:04N 50°07' W 000°41'210.1
2017-Jul-19 01:54N 50°05' W 000°40'2810.7
2017-Jul-18 23:18N 49°39' W 000°25'311.5
2017-Jul-18 23:00N 49°36' W 000°23'711.4
2017-Jul-18 22:25N 49°30' W 000°19'511.8
2017-Jul-18 22:00N 49°25' W 000°18'611.7
2017-Jul-18 21:30N 49°20' W 000°15'2 4.9
2017-Jul-18 21:01N 49°17' W 000°15'0 0.0
2017-Jul-18 20:30N 49°17' W 000°15'0 0.0
2017-Jul-18 20:00N 49°17' W 000°15'0 0.0
2017-Jul-18 19:31N 49°17' W 000°15'3 6.5
2017-Jul-18 19:00N 49°21' W 000°14'918.4
2017-Jul-18 18:30N 49°29' W 000°19'918.1
2017-Jul-18 18:00N 49°38' W 000°24'1018.9
2017-Jul-18 17:30N 49°47' W 000°29'1020.3
2017-Jul-18 17:00N 49°56' W 000°34'1020.6
2017-Jul-18 16:30N 50°06' W 000°41'1120.3
2017-Jul-18 15:58N 50°16' W 000°48'1119.7
2017-Jul-18 15:25N 50°26' W 000°53'819.6
2017-Jul-18 15:00N 50°34' W 000°56'1616.0
2017-Jul-18 14:00N 50°48' W 001°07'1 1.7
2017-Jul-18 13:30N 50°49' W 001°06'0 0.0
2017-Jul-18 13:00N 50°49' W 001°06'0 0.0
2017-Jul-18 12:31N 50°49' W 001°06'0 0.9
2017-Jul-18 12:01N 50°49' W 001°07'612.1
2017-Jul-18 11:30N 50°43' W 001°01'816.9
2017-Jul-18 11:00N 50°35' W 000°58'1019.9
2017-Jul-18 10:30N 50°26' W 000°53'1019.9
2017-Jul-18 10:01N 50°17' W 000°48'1020.2
2017-Jul-18 09:30N 50°07' W 000°42'1020.4
2017-Jul-18 09:00N 49°57' W 000°37'2920.3
2017-Jul-18 07:35N 49°31' W 000°21'420.5
2017-Jul-18 07:24N 49°27' W 000°18'819.3
2017-Jul-18 07:00N 49°20' W 000°15'2 4.6
2017-Jul-18 06:30N 49°17' W 000°15'0 0.0
2017-Jul-18 06:00N 49°17' W 000°15'0 0.0
2017-Jul-18 05:30N 49°17' W 000°15'0 0.0
2017-Jul-18 05:00N 49°17' W 000°15'0 0.3
2017-Jul-18 04:31N 49°17' W 000°15'714.9
2017-Jul-18 04:00N 49°25' W 000°16'1116.7
2017-Jul-18 03:22N 49°35' W 000°23'1515.3
2017-Jul-18 02:22N 49°48' W 000°33'615.7
2017-Jul-18 02:00N 49°54' W 000°35'816.0
2017-Jul-18 01:30N 50°01' W 000°40'815.7
2017-Jul-18 01:00N 50°09' W 000°44'815.6
2017-Jul-18 00:30N 50°16' W 000°47'815.4
2017-Jul-18 00:00N 50°23' W 000°52'815.4
2017-Jul-17 23:30N 50°31' W 000°56'815.2
2017-Jul-17 23:00N 50°38' W 000°59'612.7
2017-Jul-17 22:31N 50°44' W 001°03'611.0
2017-Jul-17 22:00N 50°49' W 001°06'0 0.7
2017-Jul-17 21:30N 50°49' W 001°06'0 0.0
2017-Jul-17 21:01N 50°49' W 001°06'0 0.0
2017-Jul-17 20:31N 50°49' W 001°06'0 0.2
2017-Jul-17 20:00N 50°49' W 001°06'4 8.5
2017-Jul-17 19:31N 50°44' W 001°05'816.6
2017-Jul-17 19:00N 50°37' W 000°58'1019.3
2017-Jul-17 18:30N 50°28' W 000°54'1019.2
2017-Jul-17 18:00N 50°19' W 000°49'1020.1
2017-Jul-17 17:30N 50°10' W 000°42'1019.9
2017-Jul-17 17:00N 50°01' W 000°36'2319.5
2017-Jul-17 15:49N 49°39' W 000°25'919.3
2017-Jul-17 15:21N 49°30' W 000°21'619.0
2017-Jul-17 15:00N 49°24' W 000°17'713.7
2017-Jul-17 14:31N 49°17' W 000°15'0 0.0
2017-Jul-17 14:00N 49°17' W 000°15'0 0.0
2017-Jul-17 13:31N 49°17' W 000°15'0 0.0
2017-Jul-17 13:00N 49°17' W 000°15'1 2.5
2017-Jul-17 12:30N 49°19' W 000°15'1018.6
2017-Jul-17 12:00N 49°28' W 000°16'3119.7
2017-Jul-17 10:24N 49°57' W 000°35'819.4
2017-Jul-17 10:00N 50°04' W 000°40'1019.6
2017-Jul-17 09:30N 50°13' W 000°45'1119.8
2017-Jul-17 08:56N 50°24' W 000°51'819.6
2017-Jul-17 08:30N 50°32' W 000°55'1019.1
2017-Jul-17 08:00N 50°41' W 001°01'816.1
2017-Jul-17 07:30N 50°48' W 001°07'1 2.3
2017-Jul-17 07:00N 50°49' W 001°06'0 0.0
2017-Jul-17 06:30N 50°49' W 001°06'0 0.0
2017-Jul-17 06:00N 50°49' W 001°06'0 0.2
2017-Jul-17 05:30N 50°49' W 001°06'510.2
2017-Jul-17 05:00N 50°44' W 001°03'816.3
2017-Jul-17 04:30N 50°36' W 000°58'815.1
2017-Jul-17 04:00N 50°29' W 000°53'814.7
2017-Jul-17 03:29N 50°22' W 000°49'715.1
2017-Jul-17 03:00N 50°15' W 000°45'711.3
2017-Jul-17 02:24N 50°09' W 000°42'1110.7
2017-Jul-17 01:23N 49°59' W 000°35'3310.5
2017-Jul-16 22:16N 49°27' W 000°23'311.2
2017-Jul-16 22:00N 49°25' W 000°20'511.0
2017-Jul-16 21:30N 49°21' W 000°15'3 6.9
2017-Jul-16 21:00N 49°17' W 000°15'0 0.0
2017-Jul-16 20:30N 49°17' W 000°15'0 0.0
2017-Jul-16 20:00N 49°17' W 000°15'0 0.0
2017-Jul-16 19:30N 49°17' W 000°15'3 5.4
2017-Jul-16 19:00N 49°20' W 000°14'917.3
2017-Jul-16 18:30N 49°28' W 000°19'4018.6
2017-Jul-16 16:21N 50°06' W 000°41'1319.9
2017-Jul-16 15:43N 50°18' W 000°47'420.4
2017-Jul-16 15:30N 50°22' W 000°49'1020.1
2017-Jul-16 15:00N 50°31' W 000°55'918.4
2017-Jul-16 14:30N 50°40' W 000°59'816.9
2017-Jul-16 14:00N 50°47' W 001°06'2 3.6
2017-Jul-16 13:31N 50°49' W 001°06'0 0.0
2017-Jul-16 13:00N 50°49' W 001°06'0 0.0
2017-Jul-16 12:31N 50°49' W 001°06'1 1.3
2017-Jul-16 12:00N 50°48' W 001°07'713.0
2017-Jul-16 11:31N 50°43' W 001°01'918.0
2017-Jul-16 11:01N 50°35' W 000°54'1019.5
2017-Jul-16 10:30N 50°26' W 000°51'1219.8
2017-Jul-16 09:55N 50°15' W 000°46'919.9
2017-Jul-16 09:29N 50°06' W 000°42'1020.1
2017-Jul-16 09:00N 49°57' W 000°38'2919.7
2017-Jul-16 07:32N 49°30' W 000°21'120.4
2017-Jul-16 07:28N 49°29' W 000°20'919.9
2017-Jul-16 07:00N 49°21' W 000°15'3 6.4
2017-Jul-16 06:30N 49°17' W 000°15'0 0.0
2017-Jul-16 06:00N 49°17' W 000°15'0 0.0
2017-Jul-16 05:30N 49°17' W 000°15'0 0.0
2017-Jul-16 05:01N 49°17' W 000°15'0 0.2
2017-Jul-16 04:30N 49°17' W 000°15'713.8
2017-Jul-16 04:00N 49°24' W 000°13'3914.6
2017-Jul-16 01:20N 50°00' W 000°36'715.5
2017-Jul-16 00:53N 50°07' W 000°39'615.5
2017-Jul-16 00:30N 50°13' W 000°41'1715.6
2017-Jul-15 23:23N 50°29' W 000°52'615.7
2017-Jul-15 23:01N 50°34' W 000°55'714.7
2017-Jul-15 22:31N 50°41' W 000°58'714.7
2017-Jul-15 22:01N 50°47' W 001°06'2 3.9
2017-Jul-15 21:30N 50°49' W 001°06'0 0.0
2017-Jul-15 21:00N 50°49' W 001°06'0 0.0
2017-Jul-15 20:30N 50°49' W 001°06'0 1.0
2017-Jul-15 20:01N 50°49' W 001°07'612.9
2017-Jul-15 19:30N 50°43' W 001°01'816.5
2017-Jul-15 19:00N 50°35' W 000°57'1617.9
2017-Jul-15 18:08N 50°20' W 000°51'318.3
2017-Jul-15 17:59N 50°18' W 000°50'918.9
2017-Jul-15 17:30N 50°09' W 000°45'918.9
2017-Jul-15 17:00N 50°01' W 000°39'3419.8
2017-Jul-15 15:18N 49°29' W 000°18'619.4
2017-Jul-15 15:00N 49°24' W 000°16'7 6.7
2017-Jul-15 14:00N 49°17' W 000°15'0 0.0
2017-Jul-15 13:30N 49°17' W 000°15'0 0.0
2017-Jul-15 13:00N 49°17' W 000°15'1 1.8
2017-Jul-15 12:31N 49°18' W 000°15'918.3
2017-Jul-15 12:00N 49°27' W 000°15'2620.3
2017-Jul-15 10:44N 49°52' W 000°30'1220.4
2017-Jul-15 10:08N 50°03' W 000°36'320.1
2017-Jul-15 10:00N 50°06' W 000°38'1120.1
2017-Jul-15 09:28N 50°16' W 000°43'1119.5
2017-Jul-15 08:54N 50°26' W 000°49'819.0
2017-Jul-15 08:28N 50°33' W 000°55'918.5
2017-Jul-15 08:00N 50°42' W 000°58'816.2
2017-Jul-15 07:30N 50°48' W 001°07'1 2.5
2017-Jul-15 07:01N 50°49' W 001°06'0 0.0
2017-Jul-15 06:30N 50°49' W 001°06'0 0.0
2017-Jul-15 06:00N 50°49' W 001°06'0 0.1
2017-Jul-15 05:31N 50°49' W 001°06'5 9.3
2017-Jul-15 05:00N 50°44' W 001°04'714.6
2017-Jul-15 04:30N 50°38' W 000°59'915.4
2017-Jul-15 03:56N 50°29' W 000°56'715.6
2017-Jul-15 03:28N 50°22' W 000°52'1115.7
2017-Jul-15 02:44N 50°11' W 000°45'415.7
2017-Jul-15 02:28N 50°07' W 000°43'3610.7
2017-Jul-14 23:05N 49°34' W 000°20'3 9.6
2017-Jul-14 22:48N 49°32' W 000°18'3 9.4
2017-Jul-14 22:30N 49°30' W 000°16'5 9.2
2017-Jul-14 22:00N 49°26' W 000°11'4 7.7
2017-Jul-14 21:30N 49°22' W 000°11'611.3
2017-Jul-14 21:00N 49°17' W 000°15'0 0.0
2017-Jul-14 20:30N 49°17' W 000°15'0 0.0
2017-Jul-14 20:00N 49°17' W 000°15'0 0.0
2017-Jul-14 19:30N 49°17' W 000°15'3 6.6
2017-Jul-14 19:00N 49°21' W 000°14'3918.0
2017-Jul-14 16:51N 49°58' W 000°32'3819.3
2017-Jul-14 14:51N 50°33' W 000°55'619.0
2017-Jul-14 14:30N 50°39' W 000°59'917.2
2017-Jul-14 14:00N 50°47' W 001°06'2 4.1
2017-Jul-14 13:30N 50°49' W 001°06'0 0.0
2017-Jul-14 13:00N 50°49' W 001°06'0 0.0
2017-Jul-14 12:30N 50°49' W 001°06'0 0.1
2017-Jul-14 12:00N 50°49' W 001°06'5 9.4
2017-Jul-14 11:30N 50°44' W 001°04'917.3
2017-Jul-14 11:00N 50°37' W 000°57'7519.4
2017-Jul-14 07:09N 49°26' W 000°18'319.8
2017-Jul-14 07:00N 49°24' W 000°16'612.8
2017-Jul-14 06:30N 49°17' W 000°15'0 0.0
2017-Jul-14 06:00N 49°17' W 000°15'0 0.0
2017-Jul-14 05:30N 49°17' W 000°15'0 0.0
2017-Jul-14 05:00N 49°17' W 000°15'0 0.2
2017-Jul-14 04:31N 49°17' W 000°15'713.1
2017-Jul-14 04:00N 49°24' W 000°16'3513.8
2017-Jul-14 01:28N 49°57' W 000°34'915.6
2017-Jul-14 00:54N 50°05' W 000°39'615.8
2017-Jul-14 00:30N 50°11' W 000°42'815.6
2017-Jul-14 00:00N 50°18' W 000°46'815.4
2017-Jul-13 23:30N 50°25' W 000°51'815.8
2017-Jul-13 23:00N 50°33' W 000°55'815.4
2017-Jul-13 22:31N 50°40' W 000°59'815.8
2017-Jul-13 22:00N 50°47' W 001°06'2 3.9
2017-Jul-13 21:31N 50°49' W 001°06'0 0.0
2017-Jul-13 21:00N 50°49' W 001°06'0 0.0
2017-Jul-13 20:31N 50°49' W 001°06'1 1.0
2017-Jul-13 20:01N 50°49' W 001°07'612.2
2017-Jul-13 19:30N 50°43' W 001°01'612.3
2017-Jul-13 19:00N 50°38' W 000°59'918.4
2017-Jul-13 18:30N 50°29' W 000°53'918.6
2017-Jul-13 18:00N 50°21' W 000°47'1019.5
2017-Jul-13 17:30N 50°12' W 000°41'1020.4
2017-Jul-13 17:00N 50°02' W 000°35'1020.1
2017-Jul-13 16:30N 49°53' W 000°31'2420.1
2017-Jul-13 15:18N 49°29' W 000°20'619.8
2017-Jul-13 15:00N 49°24' W 000°17'713.3
2017-Jul-13 14:30N 49°17' W 000°15'0 0.0
2017-Jul-13 14:00N 49°17' W 000°15'0 0.0
2017-Jul-13 13:30N 49°17' W 000°15'0 0.0
2017-Jul-13 13:00N 49°17' W 000°15'2 3.1
2017-Jul-13 12:30N 49°19' W 000°15'2619.1
2017-Jul-13 11:08N 49°44' W 000°27'419.0
2017-Jul-13 10:54N 49°48' W 000°29'819.2
2017-Jul-13 10:30N 49°55' W 000°33'1019.1
2017-Jul-13 10:00N 50°04' W 000°38'1019.5
2017-Jul-13 09:31N 50°13' W 000°44'1020.3
2017-Jul-13 09:00N 50°23' W 000°50'1020.2
2017-Jul-13 08:30N 50°32' W 000°56'918.3
2017-Jul-13 08:00N 50°41' W 000°58'816.1
2017-Jul-13 07:30N 50°47' W 001°06'2 3.2
2017-Jul-13 07:00N 50°49' W 001°06'0 0.0
2017-Jul-13 06:30N 50°49' W 001°06'0 0.0
2017-Jul-13 06:00N 50°49' W 001°06'0 0.2
2017-Jul-13 05:31N 50°49' W 001°06'510.0
2017-Jul-13 05:00N 50°44' W 001°04'816.5
2017-Jul-13 04:30N 50°37' W 000°57'816.5
2017-Jul-13 04:00N 50°29' W 000°52'815.4
2017-Jul-13 03:30N 50°22' W 000°49'611.2
2017-Jul-13 02:57N 50°16' W 000°48'511.8
2017-Jul-13 02:30N 50°10' W 000°46'612.4
2017-Jul-13 02:00N 50°06' W 000°40'611.6
2017-Jul-13 01:30N 50°00' W 000°36'610.9
2017-Jul-13 00:57N 49°55' W 000°33'610.6
2017-Jul-13 00:24N 49°49' W 000°29'1110.7
2017-Jul-12 23:20N 49°39' W 000°22'412.8
2017-Jul-12 23:00N 49°34' W 000°22'711.3
2017-Jul-12 22:23N 49°28' W 000°18'410.3
2017-Jul-12 22:00N 49°24' W 000°16'510.1
2017-Jul-12 21:30N 49°19' W 000°15'2 3.8
2017-Jul-12 21:00N 49°17' W 000°15'0 0.0
2017-Jul-12 20:30N 49°17' W 000°15'0 0.0
2017-Jul-12 20:00N 49°17' W 000°15'0 0.0
2017-Jul-12 19:30N 49°17' W 000°15'0 0.0
2017-Jul-12 19:00N 49°17' W 000°15'0 0.0
2017-Jul-12 18:30N 49°17' W 000°15'0 0.0
2017-Jul-12 18:00N 49°17' W 000°15'0 0.0
2017-Jul-12 17:30N 49°17' W 000°15'0 0.0
2017-Jul-12 17:00N 49°17' W 000°15'0 0.0
2017-Jul-12 16:30N 49°17' W 000°15'0 0.0
2017-Jul-12 16:00N 49°17' W 000°15'0 0.0
2017-Jul-12 15:30N 49°17' W 000°15'0 0.0
2017-Jul-12 15:00N 49°17' W 000°15'0 0.0
2017-Jul-12 14:00N 49°17' W 000°15'0 0.0
2017-Jul-12 13:30N 49°17' W 000°15'0 0.0
2017-Jul-12 13:00N 49°17' W 000°15'3 6.1
2017-Jul-12 12:30N 49°20' W 000°14'1019.5
2017-Jul-12 12:00N 49°30' W 000°19'6220.4
2017-Jul-12 08:56N 50°29' W 000°52'920.5
2017-Jul-12 08:30N 50°37' W 000°57'817.0
2017-Jul-12 08:01N 50°44' W 001°04'5 9.6
2017-Jul-12 07:30N 50°49' W 001°06'0 0.8
2017-Jul-12 07:01N 50°49' W 001°06'0 0.0
2017-Jul-12 06:30N 50°49' W 001°06'0 0.0
2017-Jul-12 06:01N 50°49' W 001°06'1 1.1
2017-Jul-12 05:31N 50°49' W 001°07'611.4
2017-Jul-12 05:01N 50°44' W 001°02'714.7
2017-Jul-12 04:31N 50°37' W 000°58'815.7
2017-Jul-12 04:00N 50°29' W 000°54'6411.8
2017-Jul-11 22:33N 49°29' W 000°19'111.2
2017-Jul-11 22:30N 49°28' W 000°19'611.2
2017-Jul-11 22:00N 49°23' W 000°16'610.7
2017-Jul-11 21:27N 49°17' W 000°15'0 0.2
2017-Jul-11 21:00N 49°17' W 000°15'0 0.0
2017-Jul-11 20:30N 49°17' W 000°15'0 0.0
2017-Jul-11 20:00N 49°17' W 000°15'0 0.0
2017-Jul-11 19:30N 49°17' W 000°15'4 7.2
2017-Jul-11 19:00N 49°21' W 000°14'1019.1
2017-Jul-11 18:29N 49°31' W 000°19'6519.3
2017-Jul-11 15:06N 50°32' W 000°55'219.1
2017-Jul-11 15:00N 50°33' W 000°56'918.9
2017-Jul-11 14:31N 50°42' W 001°02'714.2
2017-Jul-11 14:00N 50°48' W 001°07'1 1.7
2017-Jul-11 13:30N 50°49' W 001°06'0 0.0
2017-Jul-11 13:00N 50°49' W 001°06'0 0.0
2017-Jul-11 12:30N 50°49' W 001°06'1 2.9
2017-Jul-11 12:00N 50°47' W 001°07'816.7
2017-Jul-11 11:31N 50°40' W 001°00'1019.7
2017-Jul-11 11:01N 50°32' W 000°52'5619.2
2017-Jul-11 08:04N 49°39' W 000°23'419.0
2017-Jul-11 07:52N 49°35' W 000°22'719.2
2017-Jul-11 07:29N 49°28' W 000°18'918.1
2017-Jul-11 07:00N 49°20' W 000°15'2 4.4
2017-Jul-11 06:30N 49°17' W 000°15'0 0.0
2017-Jul-11 06:00N 49°17' W 000°15'0 0.0
2017-Jul-11 05:30N 49°17' W 000°15'0 0.0
2017-Jul-11 05:00N 49°17' W 000°15'0 0.1
2017-Jul-11 04:29N 49°17' W 000°15'714.2
2017-Jul-11 04:00N 49°24' W 000°15'5215.7
2017-Jul-11 00:42N 50°13' W 000°43'615.6
2017-Jul-11 00:21N 50°18' W 000°47'  
Track history (hours):
 
Tides and Currents Weather Stations Pressure Air Temp Water Temp Dewpoint Dewpoint Depression Visibility Wind Speed Wind Dir Waves Ship Positions

Normandie

Operator: Brittany Ferries

Last reported at 2017-Jul-21 00:15 UTC. Time now 2017-Jul-21 02:29 UTC.
Position N 50°36' W 000°58'.

Length 161 m; beam 27 m.

Type: Passenger vessel. MMSI: 227273000.

Date/timePositionNaut miles runAvg speedWind from/ knotsBaromVisibWave heightAir tempDewpointWater temp
2017-Jul-21 00:15N 50°36' W 000°58'417.5
2017-Jul-21 00:00N 50°40' W 000°59'815.2
2017-Jul-20 23:31N 50°46' W 001°06'2 4.9
2017-Jul-20 23:01N 50°49' W 001°06'0 0.0
2017-Jul-20 22:30N 50°49' W 001°06'0 0.0
2017-Jul-20 22:00N 50°49' W 001°06'0 0.0
2017-Jul-20 21:30N 50°49' W 001°06'0 0.2
2017-Jul-20 21:01N 50°49' W 001°06'5 9.6
2017-Jul-20 20:31N 50°44' W 001°04'1019.2
2017-Jul-20 20:01N 50°36' W 000°57'6918.9
2017-Jul-20 16:20N 49°30' W 000°20'618.5
2017-Jul-20 16:00N 49°25' W 000°17'714.6
2017-Jul-20 15:30N 49°17' W 000°15'0 0.0
2017-Jul-20 15:00N 49°17' W 000°15'0 0.0
2017-Jul-20 14:00N 49°17' W 000°15'0 0.0
2017-Jul-20 13:30N 49°17' W 000°15'0 0.0
2017-Jul-20 13:00N 49°17' W 000°15'3 6.0
2017-Jul-20 12:30N 49°20' W 000°14'1018.5
2017-Jul-20 11:56N 49°30' W 000°19'6319.1
2017-Jul-20 08:38N 50°29' W 000°55'319.6
2017-Jul-20 08:27N 50°32' W 000°56'919.3
2017-Jul-20 08:00N 50°41' W 000°60'816.6
2017-Jul-20 07:31N 50°48' W 001°07'1 2.3
2017-Jul-20 07:01N 50°49' W 001°06'0 0.0
2017-Jul-20 06:30N 50°49' W 001°06'0 0.0
2017-Jul-20 06:01N 50°49' W 001°06'0 0.1
2017-Jul-20 05:31N 50°49' W 001°06'4 8.1
2017-Jul-20 05:00N 50°45' W 001°05'815.8
2017-Jul-20 04:30N 50°38' W 000°59'611.3
2017-Jul-20 04:00N 50°32' W 000°55'510.9
2017-Jul-20 03:30N 50°27' W 000°52'3111.1
2017-Jul-20 00:44N 49°59' W 000°36'2811.6
2017-Jul-19 22:18N 49°32' W 000°23'412.0
2017-Jul-19 22:00N 49°29' W 000°20'612.0
2017-Jul-19 21:30N 49°23' W 000°16'611.8
2017-Jul-19 21:00N 49°17' W 000°15'0 0.2
2017-Jul-19 20:30N 49°17' W 000°15'0 0.0
2017-Jul-19 20:00N 49°17' W 000°15'0 0.0
2017-Jul-19 19:30N 49°17' W 000°15'0 0.0
2017-Jul-19 19:00N 49°17' W 000°15'0 0.0
2017-Jul-19 18:31N 49°17' W 000°15'0 0.0
2017-Jul-19 18:00N 49°17' W 000°15'0 0.0
2017-Jul-19 17:30N 49°17' W 000°15'0 0.0
2017-Jul-19 17:00N 49°17' W 000°15'0 0.0
2017-Jul-19 16:30N 49°17' W 000°15'0 0.0
2017-Jul-19 16:01N 49°17' W 000°15'0 0.0
2017-Jul-19 15:31N 49°17' W 000°15'0 0.0
2017-Jul-19 15:01N 49°17' W 000°15'0 0.0
2017-Jul-19 14:31N 49°17' W 000°15'0 0.0
2017-Jul-19 14:01N 49°17' W 000°15'0 0.0
2017-Jul-19 13:30N 49°17' W 000°15'0 0.0
2017-Jul-19 13:01N 49°17' W 000°15'5 9.7
2017-Jul-19 12:30N 49°22' W 000°14'1018.8
2017-Jul-19 11:59N 49°32' W 000°18'6119.0
2017-Jul-19 08:47N 50°28' W 000°55'819.1
2017-Jul-19 08:23N 50°35' W 000°59'718.2
2017-Jul-19 08:00N 50°42' W 000°60'815.1
2017-Jul-19 07:30N 50°48' W 001°07'1 2.1
2017-Jul-19 07:00N 50°49' W 001°06'0 0.0
2017-Jul-19 06:30N 50°49' W 001°06'0 0.0
2017-Jul-19 06:00N 50°49' W 001°06'0 0.2
2017-Jul-19 05:31N 50°49' W 001°06'5 9.3
2017-Jul-19 05:00N 50°44' W 001°04'816.3
2017-Jul-19 04:31N 50°37' W 000°57'815.0
2017-Jul-19 04:00N 50°30' W 000°54'815.1
2017-Jul-19 03:27N 50°22' W 000°49'1611.6
2017-Jul-19 02:04N 50°07' W 000°41'210.1
2017-Jul-19 01:54N 50°05' W 000°40'2810.7
2017-Jul-18 23:18N 49°39' W 000°25'311.5
2017-Jul-18 23:00N 49°36' W 000°23'711.4
2017-Jul-18 22:25N 49°30' W 000°19'511.8
2017-Jul-18 22:00N 49°25' W 000°18'611.7
2017-Jul-18 21:30N 49°20' W 000°15'2 4.9
2017-Jul-18 21:01N 49°17' W 000°15'0 0.0
2017-Jul-18 20:30N 49°17' W 000°15'0 0.0
2017-Jul-18 20:00N 49°17' W 000°15'0 0.0
2017-Jul-18 19:31N 49°17' W 000°15'3 6.5
2017-Jul-18 19:00N 49°21' W 000°14'918.4
2017-Jul-18 18:30N 49°29' W 000°19'918.1
2017-Jul-18 18:00N 49°38' W 000°24'1018.9
2017-Jul-18 17:30N 49°47' W 000°29'1020.3
2017-Jul-18 17:00N 49°56' W 000°34'1020.6
2017-Jul-18 16:30N 50°06' W 000°41'1120.3
2017-Jul-18 15:58N 50°16' W 000°48'1119.7
2017-Jul-18 15:25N 50°26' W 000°53'819.6
2017-Jul-18 15:00N 50°34' W 000°56'1616.0
2017-Jul-18 14:00N 50°48' W 001°07'1 1.7
2017-Jul-18 13:30N 50°49' W 001°06'0 0.0
2017-Jul-18 13:00N 50°49' W 001°06'0 0.0
2017-Jul-18 12:31N 50°49' W 001°06'0 0.9
2017-Jul-18 12:01N 50°49' W 001°07'612.1
2017-Jul-18 11:30N 50°43' W 001°01'816.9
2017-Jul-18 11:00N 50°35' W 000°58'1019.9
2017-Jul-18 10:30N 50°26' W 000°53'1019.9
2017-Jul-18 10:01N 50°17' W 000°48'1020.2
2017-Jul-18 09:30N 50°07' W 000°42'1020.4
2017-Jul-18 09:00N 49°57' W 000°37'2920.3
2017-Jul-18 07:35N 49°31' W 000°21'420.5
2017-Jul-18 07:24N 49°27' W 000°18'819.3
2017-Jul-18 07:00N 49°20' W 000°15'2 4.6
2017-Jul-18 06:30N 49°17' W 000°15'0 0.0
2017-Jul-18 06:00N 49°17' W 000°15'0 0.0
2017-Jul-18 05:30N 49°17' W 000°15'0 0.0
2017-Jul-18 05:00N 49°17' W 000°15'0 0.3
2017-Jul-18 04:31N 49°17' W 000°15'714.9
2017-Jul-18 04:00N 49°25' W 000°16'1116.7
2017-Jul-18 03:22N 49°35' W 000°23'1515.3
2017-Jul-18 02:22N 49°48' W 000°33'615.7
2017-Jul-18 02:00N 49°54' W 000°35'816.0
2017-Jul-18 01:30N 50°01' W 000°40'815.7
2017-Jul-18 01:00N 50°09' W 000°44'815.6
2017-Jul-18 00:30N 50°16' W 000°47'815.4
2017-Jul-18 00:00N 50°23' W 000°52'815.4
2017-Jul-17 23:30N 50°31' W 000°56'815.2
2017-Jul-17 23:00N 50°38' W 000°59'612.7
2017-Jul-17 22:31N 50°44' W 001°03'611.0
2017-Jul-17 22:00N 50°49' W 001°06'0 0.7
2017-Jul-17 21:30N 50°49' W 001°06'0 0.0
2017-Jul-17 21:01N 50°49' W 001°06'0 0.0
2017-Jul-17 20:31N 50°49' W 001°06'0 0.2
2017-Jul-17 20:00N 50°49' W 001°06'4 8.5
2017-Jul-17 19:31N 50°44' W 001°05'816.6
2017-Jul-17 19:00N 50°37' W 000°58'1019.3
2017-Jul-17 18:30N 50°28' W 000°54'1019.2
2017-Jul-17 18:00N 50°19' W 000°49'1020.1
2017-Jul-17 17:30N 50°10' W 000°42'1019.9
2017-Jul-17 17:00N 50°01' W 000°36'2319.5
2017-Jul-17 15:49N 49°39' W 000°25'919.3
2017-Jul-17 15:21N 49°30' W 000°21'619.0
2017-Jul-17 15:00N 49°24' W 000°17'713.7
2017-Jul-17 14:31N 49°17' W 000°15'0 0.0
2017-Jul-17 14:00N 49°17' W 000°15'0 0.0
2017-Jul-17 13:31N 49°17' W 000°15'0 0.0
2017-Jul-17 13:00N 49°17' W 000°15'1 2.5
2017-Jul-17 12:30N 49°19' W 000°15'1018.6
2017-Jul-17 12:00N 49°28' W 000°16'3119.7
2017-Jul-17 10:24N 49°57' W 000°35'819.4
2017-Jul-17 10:00N 50°04' W 000°40'1019.6
2017-Jul-17 09:30N 50°13' W 000°45'1119.8
2017-Jul-17 08:56N 50°24' W 000°51'819.6
2017-Jul-17 08:30N 50°32' W 000°55'1019.1
2017-Jul-17 08:00N 50°41' W 001°01'816.1
2017-Jul-17 07:30N 50°48' W 001°07'1 2.3
2017-Jul-17 07:00N 50°49' W 001°06'0 0.0
2017-Jul-17 06:30N 50°49' W 001°06'0 0.0
2017-Jul-17 06:00N 50°49' W 001°06'0 0.2
2017-Jul-17 05:30N 50°49' W 001°06'510.2
2017-Jul-17 05:00N 50°44' W 001°03'816.3
2017-Jul-17 04:30N 50°36' W 000°58'815.1
2017-Jul-17 04:00N 50°29' W 000°53'814.7
2017-Jul-17 03:29N 50°22' W 000°49'715.1
2017-Jul-17 03:00N 50°15' W 000°45'711.3
2017-Jul-17 02:24N 50°09' W 000°42'1110.7
2017-Jul-17 01:23N 49°59' W 000°35'3310.5
2017-Jul-16 22:16N 49°27' W 000°23'311.2
2017-Jul-16 22:00N 49°25' W 000°20'511.0
2017-Jul-16 21:30N 49°21' W 000°15'3 6.9
2017-Jul-16 21:00N 49°17' W 000°15'0 0.0
2017-Jul-16 20:30N 49°17' W 000°15'0 0.0
2017-Jul-16 20:00N 49°17' W 000°15'0 0.0
2017-Jul-16 19:30N 49°17' W 000°15'3 5.4
2017-Jul-16 19:00N 49°20' W 000°14'917.3
2017-Jul-16 18:30N 49°28' W 000°19'4018.6
2017-Jul-16 16:21N 50°06' W 000°41'1319.9
2017-Jul-16 15:43N 50°18' W 000°47'420.4
2017-Jul-16 15:30N 50°22' W 000°49'1020.1
2017-Jul-16 15:00N 50°31' W 000°55'918.4
2017-Jul-16 14:30N 50°40' W 000°59'816.9
2017-Jul-16 14:00N 50°47' W 001°06'2 3.6
2017-Jul-16 13:31N 50°49' W 001°06'0 0.0
2017-Jul-16 13:00N 50°49' W 001°06'0 0.0
2017-Jul-16 12:31N 50°49' W 001°06'1 1.3
2017-Jul-16 12:00N 50°48' W 001°07'713.0
2017-Jul-16 11:31N 50°43' W 001°01'918.0
2017-Jul-16 11:01N 50°35' W 000°54'1019.5
2017-Jul-16 10:30N 50°26' W 000°51'1219.8
2017-Jul-16 09:55N 50°15' W 000°46'919.9
2017-Jul-16 09:29N 50°06' W 000°42'1020.1
2017-Jul-16 09:00N 49°57' W 000°38'2919.7
2017-Jul-16 07:32N 49°30' W 000°21'120.4
2017-Jul-16 07:28N 49°29' W 000°20'919.9
2017-Jul-16 07:00N 49°21' W 000°15'3 6.4
2017-Jul-16 06:30N 49°17' W 000°15'0 0.0
2017-Jul-16 06:00N 49°17' W 000°15'0 0.0
2017-Jul-16 05:30N 49°17' W 000°15'0 0.0
2017-Jul-16 05:01N 49°17' W 000°15'0 0.2
2017-Jul-16 04:30N 49°17' W 000°15'713.8
2017-Jul-16 04:00N 49°24' W 000°13'3914.6
2017-Jul-16 01:20N 50°00' W 000°36'715.5
2017-Jul-16 00:53N 50°07' W 000°39'615.5
2017-Jul-16 00:30N 50°13' W 000°41'1715.6
2017-Jul-15 23:23N 50°29' W 000°52'615.7
2017-Jul-15 23:01N 50°34' W 000°55'714.7
2017-Jul-15 22:31N 50°41' W 000°58'714.7
2017-Jul-15 22:01N 50°47' W 001°06'2 3.9
2017-Jul-15 21:30N 50°49' W 001°06'0 0.0
2017-Jul-15 21:00N 50°49' W 001°06'0 0.0
2017-Jul-15 20:30N 50°49' W 001°06'0 1.0
2017-Jul-15 20:01N 50°49' W 001°07'612.9
2017-Jul-15 19:30N 50°43' W 001°01'816.5
2017-Jul-15 19:00N 50°35' W 000°57'1617.9
2017-Jul-15 18:08N 50°20' W 000°51'318.3
2017-Jul-15 17:59N 50°18' W 000°50'918.9
2017-Jul-15 17:30N 50°09' W 000°45'918.9
2017-Jul-15 17:00N 50°01' W 000°39'3419.8
2017-Jul-15 15:18N 49°29' W 000°18'619.4
2017-Jul-15 15:00N 49°24' W 000°16'7 6.7
2017-Jul-15 14:00N 49°17' W 000°15'0 0.0
2017-Jul-15 13:30N 49°17' W 000°15'0 0.0
2017-Jul-15 13:00N 49°17' W 000°15'1 1.8
2017-Jul-15 12:31N 49°18' W 000°15'918.3
2017-Jul-15 12:00N 49°27' W 000°15'2620.3
2017-Jul-15 10:44N 49°52' W 000°30'1220.4
2017-Jul-15 10:08N 50°03' W 000°36'320.1
2017-Jul-15 10:00N 50°06' W 000°38'1120.1
2017-Jul-15 09:28N 50°16' W 000°43'1119.5
2017-Jul-15 08:54N 50°26' W 000°49'819.0
2017-Jul-15 08:28N 50°33' W 000°55'918.5
2017-Jul-15 08:00N 50°42' W 000°58'816.2
2017-Jul-15 07:30N 50°48' W 001°07'1 2.5
2017-Jul-15 07:01N 50°49' W 001°06'0 0.0
2017-Jul-15 06:30N 50°49' W 001°06'0 0.0
2017-Jul-15 06:00N 50°49' W 001°06'0 0.1
2017-Jul-15 05:31N 50°49' W 001°06'5 9.3
2017-Jul-15 05:00N 50°44' W 001°04'714.6
2017-Jul-15 04:30N 50°38' W 000°59'915.4
2017-Jul-15 03:56N 50°29' W 000°56'715.6
2017-Jul-15 03:28N 50°22' W 000°52'1115.7
2017-Jul-15 02:44N 50°11' W 000°45'415.7
2017-Jul-15 02:28N 50°07' W 000°43'3610.7
2017-Jul-14 23:05N 49°34' W 000°20'3 9.6
2017-Jul-14 22:48N 49°32' W 000°18'3 9.4
2017-Jul-14 22:30N 49°30' W 000°16'5 9.2
2017-Jul-14 22:00N 49°26' W 000°11'4 7.7
2017-Jul-14 21:30N 49°22' W 000°11'611.3
2017-Jul-14 21:00N 49°17' W 000°15'0 0.0
2017-Jul-14 20:30N 49°17' W 000°15'0 0.0
2017-Jul-14 20:00N 49°17' W 000°15'0 0.0
2017-Jul-14 19:30N 49°17' W 000°15'3 6.6
2017-Jul-14 19:00N 49°21' W 000°14'3918.0
2017-Jul-14 16:51N 49°58' W 000°32'3819.3
2017-Jul-14 14:51N 50°33' W 000°55'619.0
2017-Jul-14 14:30N 50°39' W 000°59'917.2
2017-Jul-14 14:00N 50°47' W 001°06'2 4.1
2017-Jul-14 13:30N 50°49' W 001°06'0 0.0
2017-Jul-14 13:00N 50°49' W 001°06'0 0.0
2017-Jul-14 12:30N 50°49' W 001°06'0 0.1
2017-Jul-14 12:00N 50°49' W 001°06'5 9.4
2017-Jul-14 11:30N 50°44' W 001°04'917.3
2017-Jul-14 11:00N 50°37' W 000°57'7519.4
2017-Jul-14 07:09N 49°26' W 000°18'319.8
2017-Jul-14 07:00N 49°24' W 000°16'612.8
2017-Jul-14 06:30N 49°17' W 000°15'0 0.0
2017-Jul-14 06:00N 49°17' W 000°15'0 0.0
2017-Jul-14 05:30N 49°17' W 000°15'0 0.0
2017-Jul-14 05:00N 49°17' W 000°15'0 0.2
2017-Jul-14 04:31N 49°17' W 000°15'713.1
2017-Jul-14 04:00N 49°24' W 000°16'3513.8
2017-Jul-14 01:28N 49°57' W 000°34'915.6
2017-Jul-14 00:54N 50°05' W 000°39'615.8
2017-Jul-14 00:30N 50°11' W 000°42'815.6
2017-Jul-14 00:00N 50°18' W 000°46'815.4
2017-Jul-13 23:30N 50°25' W 000°51'815.8
2017-Jul-13 23:00N 50°33' W 000°55'815.4
2017-Jul-13 22:31N 50°40' W 000°59'815.8
2017-Jul-13 22:00N 50°47' W 001°06'2 3.9
2017-Jul-13 21:31N 50°49' W 001°06'0 0.0
2017-Jul-13 21:00N 50°49' W 001°06'0 0.0
2017-Jul-13 20:31N 50°49' W 001°06'1 1.0
2017-Jul-13 20:01N 50°49' W 001°07'612.2
2017-Jul-13 19:30N 50°43' W 001°01'612.3
2017-Jul-13 19:00N 50°38' W 000°59'918.4
2017-Jul-13 18:30N 50°29' W 000°53'918.6
2017-Jul-13 18:00N 50°21' W 000°47'1019.5
2017-Jul-13 17:30N 50°12' W 000°41'1020.4
2017-Jul-13 17:00N 50°02' W 000°35'1020.1
2017-Jul-13 16:30N 49°53' W 000°31'2420.1
2017-Jul-13 15:18N 49°29' W 000°20'619.8
2017-Jul-13 15:00N 49°24' W 000°17'713.3
2017-Jul-13 14:30N 49°17' W 000°15'0 0.0
2017-Jul-13 14:00N 49°17' W 000°15'0 0.0
2017-Jul-13 13:30N 49°17' W 000°15'0 0.0
2017-Jul-13 13:00N 49°17' W 000°15'2 3.1
2017-Jul-13 12:30N 49°19' W 000°15'2619.1
2017-Jul-13 11:08N 49°44' W 000°27'419.0
2017-Jul-13 10:54N 49°48' W 000°29'819.2
2017-Jul-13 10:30N 49°55' W 000°33'1019.1
2017-Jul-13 10:00N 50°04' W 000°38'1019.5
2017-Jul-13 09:31N 50°13' W 000°44'1020.3
2017-Jul-13 09:00N 50°23' W 000°50'1020.2
2017-Jul-13 08:30N 50°32' W 000°56'918.3
2017-Jul-13 08:00N 50°41' W 000°58'816.1
2017-Jul-13 07:30N 50°47' W 001°06'2 3.2
2017-Jul-13 07:00N 50°49' W 001°06'0 0.0
2017-Jul-13 06:30N 50°49' W 001°06'0 0.0
2017-Jul-13 06:00N 50°49' W 001°06'0 0.2
2017-Jul-13 05:31N 50°49' W 001°06'510.0
2017-Jul-13 05:00N 50°44' W 001°04'816.5
2017-Jul-13 04:30N 50°37' W 000°57'816.5
2017-Jul-13 04:00N 50°29' W 000°52'815.4
2017-Jul-13 03:30N 50°22' W 000°49'611.2
2017-Jul-13 02:57N 50°16' W 000°48'511.8
2017-Jul-13 02:30N 50°10' W 000°46'612.4
2017-Jul-13 02:00N 50°06' W 000°40'611.6
2017-Jul-13 01:30N 50°00' W 000°36'610.9
2017-Jul-13 00:57N 49°55' W 000°33'610.6
2017-Jul-13 00:24N 49°49' W 000°29'1110.7
2017-Jul-12 23:20N 49°39' W 000°22'412.8
2017-Jul-12 23:00N 49°34' W 000°22'711.3
2017-Jul-12 22:23N 49°28' W 000°18'410.3
2017-Jul-12 22:00N 49°24' W 000°16'510.1
2017-Jul-12 21:30N 49°19' W 000°15'2 3.8
2017-Jul-12 21:00N 49°17' W 000°15'0 0.0
2017-Jul-12 20:30N 49°17' W 000°15'0 0.0
2017-Jul-12 20:00N 49°17' W 000°15'0 0.0
2017-Jul-12 19:30N 49°17' W 000°15'0 0.0
2017-Jul-12 19:00N 49°17' W 000°15'0 0.0
2017-Jul-12 18:30N 49°17' W 000°15'0 0.0
2017-Jul-12 18:00N 49°17' W 000°15'0 0.0
2017-Jul-12 17:30N 49°17' W 000°15'0 0.0
2017-Jul-12 17:00N 49°17' W 000°15'0 0.0
2017-Jul-12 16:30N 49°17' W 000°15'0 0.0
2017-Jul-12 16:00N 49°17' W 000°15'0 0.0
2017-Jul-12 15:30N 49°17' W 000°15'0 0.0
2017-Jul-12 15:00N 49°17' W 000°15'0 0.0
2017-Jul-12 14:00N 49°17' W 000°15'0 0.0
2017-Jul-12 13:30N 49°17' W 000°15'0 0.0
2017-Jul-12 13:00N 49°17' W 000°15'3 6.1
2017-Jul-12 12:30N 49°20' W 000°14'1019.5
2017-Jul-12 12:00N 49°30' W 000°19'6220.4
2017-Jul-12 08:56N 50°29' W 000°52'920.5
2017-Jul-12 08:30N 50°37' W 000°57'817.0
2017-Jul-12 08:01N 50°44' W 001°04'5 9.6
2017-Jul-12 07:30N 50°49' W 001°06'0 0.8
2017-Jul-12 07:01N 50°49' W 001°06'0 0.0
2017-Jul-12 06:30N 50°49' W 001°06'0 0.0
2017-Jul-12 06:01N 50°49' W 001°06'1 1.1
2017-Jul-12 05:31N 50°49' W 001°07'611.4
2017-Jul-12 05:01N 50°44' W 001°02'714.7
2017-Jul-12 04:31N 50°37' W 000°58'815.7
2017-Jul-12 04:00N 50°29' W 000°54'6411.8
2017-Jul-11 22:33N 49°29' W 000°19'111.2
2017-Jul-11 22:30N 49°28' W 000°19'611.2
2017-Jul-11 22:00N 49°23' W 000°16'610.7
2017-Jul-11 21:27N 49°17' W 000°15'0 0.2
2017-Jul-11 21:00N 49°17' W 000°15'0 0.0
2017-Jul-11 20:30N 49°17' W 000°15'0 0.0
2017-Jul-11 20:00N 49°17' W 000°15'0 0.0
2017-Jul-11 19:30N 49°17' W 000°15'4 7.2
2017-Jul-11 19:00N 49°21' W 000°14'1019.1
2017-Jul-11 18:29N 49°31' W 000°19'6519.3
2017-Jul-11 15:06N 50°32' W 000°55'219.1
2017-Jul-11 15:00N 50°33' W 000°56'918.9
2017-Jul-11 14:31N 50°42' W 001°02'714.2
2017-Jul-11 14:00N 50°48' W 001°07'1 1.7
2017-Jul-11 13:30N 50°49' W 001°06'0 0.0
2017-Jul-11 13:00N 50°49' W 001°06'0 0.0
2017-Jul-11 12:30N 50°49' W 001°06'1 2.9
2017-Jul-11 12:00N 50°47' W 001°07'816.7
2017-Jul-11 11:31N 50°40' W 001°00'1019.7
2017-Jul-11 11:01N 50°32' W 000°52'5619.2
2017-Jul-11 08:04N 49°39' W 000°23'419.0
2017-Jul-11 07:52N 49°35' W 000°22'719.2
2017-Jul-11 07:29N 49°28' W 000°18'918.1
2017-Jul-11 07:00N 49°20' W 000°15'2 4.4
2017-Jul-11 06:30N 49°17' W 000°15'0 0.0
2017-Jul-11 06:00N 49°17' W 000°15'0 0.0
2017-Jul-11 05:30N 49°17' W 000°15'0 0.0
2017-Jul-11 05:00N 49°17' W 000°15'0 0.1
2017-Jul-11 04:29N 49°17' W 000°15'714.2
2017-Jul-11 04:00N 49°24' W 000°15'5215.7
2017-Jul-11 00:42N 50°13' W 000°43'615.6
2017-Jul-11 00:21N 50°18' W 000°47'  

Dump ship's entire track history